Time;durP1;ratioP1;P1;durP2;ratioP2;P2;SDS_P1;SDS_P2;PMS_P1;PMS_P2;Temp;Humidity;BMP_temperature;BMP_pressure;BME280_temperature;BME280_humidity;BME280_pressure;Samples;Min_cycle;Max_cycle;Signal;HPM_P1;HPM_P2
2021/12/28 00:00:24;;;;;;;;;0.00;0.00;;;;;18.13;45.70;98927.88;5096328;27;51164;-52
2021/12/28 00:02:50;;;;;;;;;1.00;1.00;;;;;18.11;45.98;98914.41;5095656;27;51983;-52
2021/12/28 00:05:17;;;;;;;;;1.25;0.75;;;;;18.12;45.82;98907.03;5095764;27;51087;-52
2021/12/28 00:07:42;;;;;;;;;0.25;0.25;;;;;18.12;45.71;98896.91;5095955;27;51117;-52
2021/12/28 00:10:11;;;;;;;;;2.00;1.00;;;;;18.13;45.78;98900.47;5096097;27;51209;-49
2021/12/28 00:12:38;;;;;;;;;0.00;0.00;;;;;18.12;45.71;98896.91;5095597;27;51051;-50
2021/12/28 00:15:18;;;;;;;;;1.00;1.00;;;;;18.13;45.78;98889.50;5097965;27;51150;-50
2021/12/28 00:17:59;;;;;;;;;0.00;0.00;;;;;18.10;45.43;98881.81;5095818;27;50941;-52
2021/12/28 00:20:27;;;;;;;;;0.00;0.00;;;;;18.13;45.88;98881.28;5079145;27;51001;-49
2021/12/28 00:22:53;;;;;;;;;0.75;0.00;;;;;18.13;45.89;98870.31;5078581;28;50958;-47
2021/12/28 00:25:18;;;;;;;;;0.00;0.00;;;;;18.12;45.82;98868.66;5078970;28;51005;-55
2021/12/28 00:27:44;;;;;;;;;0.00;0.00;;;;;18.13;45.75;98873.06;5095052;27;51042;-50
2021/12/28 00:30:10;;;;;;;;;0.50;0.50;;;;;18.13;45.86;98873.91;5099425;27;51290;-50
2021/12/28 00:32:36;;;;;;;;;0.00;0.00;;;;;18.12;45.76;98871.41;5098881;27;52679;-52
2021/12/28 00:35:02;;;;;;;;;1.00;0.00;;;;;18.12;45.69;98864.00;5099051;27;50976;-51
2021/12/28 00:37:28;;;;;;;;;0.50;0.50;;;;;18.12;45.82;98861.28;5098973;27;51111;-50
2021/12/28 00:39:53;;;;;;;;;0.00;0.00;;;;;18.12;45.95;98864.00;5099166;27;51032;-48
2021/12/28 00:42:18;;;;;;;;;0.00;0.00;;;;;18.12;45.65;98857.72;5098869;27;51712;-51
2021/12/28 00:44:44;;;;;;;;;1.00;0.00;;;;;18.12;45.68;98854.97;5099053;27;51095;-50
2021/12/28 00:47:09;;;;;;;;;0.00;0.00;;;;;18.12;45.78;98863.19;5098955;27;50994;-52
2021/12/28 00:49:34;;;;;;;;;0.25;0.25;;;;;18.12;45.73;98863.19;5099053;27;51413;-53
2021/12/28 00:52:00;;;;;;;;;0.00;0.00;;;;;18.12;45.91;98863.19;5098627;27;50999;-51
2021/12/28 00:54:25;;;;;;;;;0.75;0.75;;;;;18.13;45.74;98859.38;5099012;27;51116;-50
2021/12/28 00:56:51;;;;;;;;;0.00;0.00;;;;;18.12;45.85;98865.94;5098959;27;50973;-49
2021/12/28 00:59:16;;;;;;;;;0.00;0.00;;;;;18.12;45.92;98866.75;5098714;27;51333;-48
2021/12/28 01:01:41;;;;;;;;;0.00;0.00;;;;;18.12;45.97;98871.41;5098465;27;52694;-50
2021/12/28 01:04:07;;;;;;;;;0.00;0.00;;;;;18.12;45.88;98879.63;5098629;27;50967;-47
2021/12/28 01:06:32;;;;;;;;;0.50;0.00;;;;;18.12;45.80;98874.97;5098760;27;50879;-47
2021/12/28 01:08:57;;;;;;;;;0.00;0.00;;;;;18.12;45.64;98868.66;5098894;27;50919;-52
2021/12/28 01:11:24;;;;;;;;;0.00;0.00;;;;;18.13;45.75;98875.81;5098462;27;51826;-51
2021/12/28 01:13:49;;;;;;;;;0.00;0.00;;;;;18.12;45.67;98869.50;5098649;27;51394;-51
2021/12/28 01:16:15;;;;;;;;;0.75;0.00;;;;;18.11;45.90;98867.00;5098586;27;51182;-49
2021/12/28 01:18:41;;;;;;;;;0.00;0.00;;;;;18.12;45.90;98882.38;5087298;27;51337;-52
2021/12/28 01:21:07;;;;;;;;;0.00;0.00;;;;;18.11;45.68;98876.06;5077751;28;51058;-51
2021/12/28 01:23:33;;;;;;;;;0.00;0.00;;;;;18.12;45.96;98876.88;5077914;27;51034;-51
2021/12/28 01:25:58;;;;;;;;;0.00;0.00;;;;;18.12;45.82;98874.97;5078922;27;51111;-51
2021/12/28 01:28:24;;;;;;;;;0.00;0.00;;;;;18.12;45.70;98871.41;5098707;27;50926;-51
2021/12/28 01:30:50;;;;;;;;;1.00;0.00;;;;;18.12;45.98;98872.22;5098354;27;51054;-50
2021/12/28 01:33:15;;;;;;;;;0.00;0.00;;;;;18.13;46.04;98867.59;5098164;27;51115;-49
2021/12/28 01:35:40;;;;;;;;;1.00;0.00;;;;;18.13;45.96;98870.31;5098241;27;51135;-49
2021/12/28 01:38:06;;;;;;;;;0.00;0.00;;;;;18.12;45.92;98876.88;5098373;27;50937;-51
2021/12/28 01:40:35;;;;;;;;;0.00;0.00;;;;;18.13;46.05;98878.53;5098156;27;51869;-51
2021/12/28 01:43:14;;;;;;;;;0.00;0.00;;;;;18.12;45.92;98882.38;5098430;27;51119;-51
2021/12/28 01:45:47;;;;;;;;;0.00;0.00;;;;;18.13;45.96;98878.53;5098319;27;51139;-52
2021/12/28 01:48:20;;;;;;;;;0.00;0.00;;;;;18.12;45.83;98877.72;5097931;27;51213;-50
2021/12/28 01:50:48;;;;;;;;;0.00;0.00;;;;;18.12;45.89;98876.88;5097728;27;53000;-50
2021/12/28 01:53:15;;;;;;;;;0.50;0.00;;;;;18.12;45.88;98894.16;5097984;27;51355;-50
2021/12/28 01:55:42;;;;;;;;;0.00;0.00;;;;;18.12;46.00;98891.41;5098201;27;51156;-47
2021/12/28 01:58:08;;;;;;;;;0.00;0.00;;;;;18.12;45.97;98902.38;5098081;27;51049;-50
2021/12/28 02:00:35;;;;;;;;;2.00;0.00;;;;;18.11;45.99;98902.63;5097626;27;52171;-54
2021/12/28 02:03:06;;;;;;;;;0.00;0.00;;;;;18.13;45.72;98916.91;5098055;27;50990;-53
2021/12/28 02:05:32;;;;;;;;;0.00;0.00;;;;;18.13;45.95;98916.91;5097966;27;51136;-48
2021/12/28 02:07:57;;;;;;;;;0.00;0.00;;;;;18.13;46.15;98922.38;5098231;27;50905;-53
2021/12/28 02:10:22;;;;;;;;;0.00;0.00;;;;;18.12;45.73;98942.66;5097490;27;51169;-51
2021/12/28 02:12:48;;;;;;;;;0.00;0.00;;;;;18.12;46.01;98939.91;5097852;27;50913;-52
2021/12/28 02:15:15;;;;;;;;;0.00;0.00;;;;;18.13;45.95;98956.13;5097549;27;51008;-49
2021/12/28 02:17:42;;;;;;;;;0.00;0.00;;;;;18.13;45.97;98949.78;5094869;27;51407;-47
2021/12/28 02:20:11;;;;;;;;;0.00;0.00;;;;;18.14;45.98;98951.47;5077106;27;52174;-50
2021/12/28 02:22:38;;;;;;;;;0.75;0.00;;;;;18.13;46.10;98956.13;5076761;27;51125;-52
2021/12/28 02:25:04;;;;;;;;;0.00;0.00;;;;;18.13;46.05;98958.00;5077257;28;51052;-51
2021/12/28 02:27:30;;;;;;;;;0.75;0.00;;;;;18.12;46.07;98962.66;5091567;27;51172;-50
2021/12/28 02:29:56;;;;;;;;;0.00;0.00;;;;;18.13;46.12;98967.09;5097208;27;51904;-52
2021/12/28 02:32:26;;;;;;;;;0.00;0.00;;;;;18.12;46.01;98973.63;5097831;27;51455;-52
2021/12/28 02:34:51;;;;;;;;;0.00;0.00;;;;;18.13;46.02;98977.19;5097300;27;51031;-49
2021/12/28 02:37:16;;;;;;;;;0.00;0.00;;;;;18.14;46.04;98981.63;5096458;27;51039;-53
2021/12/28 02:39:42;;;;;;;;;0.00;0.00;;;;;18.14;46.11;99000.81;5097079;27;51886;-51
2021/12/28 02:42:07;;;;;;;;;0.00;0.00;;;;;18.14;46.01;99004.38;5097446;27;51055;-51
2021/12/28 02:44:32;;;;;;;;;0.00;0.00;;;;;18.14;46.07;99017.25;5097197;27;51452;-49
2021/12/28 02:46:58;;;;;;;;;0.00;0.00;;;;;18.14;45.98;99009.84;5097568;27;50871;-50
2021/12/28 02:49:23;;;;;;;;;0.00;0.00;;;;;18.14;45.92;99023.56;5096737;27;51916;-51
2021/12/28 02:51:48;;;;;;;;;0.00;0.00;;;;;18.14;46.20;99023.56;5097069;27;51070;-48
2021/12/28 02:54:14;;;;;;;;;0.75;0.00;;;;;18.14;45.94;99031.78;5097220;27;51139;-50
2021/12/28 02:56:39;;;;;;;;;0.00;0.00;;;;;18.14;46.14;99050.13;5097299;27;50989;-50
2021/12/28 02:59:04;;;;;;;;;0.00;0.00;;;;;18.15;46.15;99049.03;5096722;27;51127;-52
2021/12/28 03:01:30;;;;;;;;;0.00;0.00;;;;;18.15;46.12;99060.00;5097297;27;51032;-54
2021/12/28 03:04:07;;;;;;;;;0.00;0.00;;;;;18.15;45.95;99065.47;5096866;27;51740;-52
2021/12/28 03:06:34;;;;;;;;;0.00;0.00;;;;;18.14;46.02;99067.41;5096885;27;52193;-51
2021/12/28 03:09:02;;;;;;;;;0.00;0.00;;;;;18.15;46.11;99073.72;5096633;27;51909;-50
2021/12/28 03:11:29;;;;;;;;;0.00;0.00;;;;;18.15;45.89;99073.72;5096694;27;50903;-52
2021/12/28 03:13:57;;;;;;;;;0.00;0.00;;;;;18.14;45.83;99074.78;5096724;27;51008;-52
2021/12/28 03:16:24;;;;;;;;;0.00;0.00;;;;;18.15;46.10;99077.28;5096763;27;51324;-51
2021/12/28 03:18:50;;;;;;;;;0.00;0.00;;;;;18.15;46.18;99082.75;5084149;27;51140;-47
2021/12/28 03:21:18;;;;;;;;;0.00;0.00;;;;;18.14;46.20;99072.88;5075892;27;51052;-48
2021/12/28 03:23:45;;;;;;;;;0.00;0.00;;;;;18.15;46.22;99076.44;5076071;28;51466;-47
2021/12/28 03:26:13;;;;;;;;;0.00;0.00;;;;;18.14;46.08;99075.63;5079356;27;51261;-49
2021/12/28 03:28:40;;;;;;;;;0.00;0.00;;;;;18.16;46.10;99089.06;5096425;27;51925;-51
2021/12/28 03:31:08;;;;;;;;;0.00;0.00;;;;;18.15;46.03;99080.00;5096575;27;51315;-49
2021/12/28 03:33:36;;;;;;;;;0.00;0.00;;;;;18.15;45.97;99090.16;5096715;27;50889;-51
2021/12/28 03:36:03;;;;;;;;;0.00;0.00;;;;;18.14;45.85;99100.28;5096211;27;51083;-48
2021/12/28 03:38:28;;;;;;;;;0.00;0.00;;;;;18.15;46.03;99090.16;5096168;27;54119;-50
2021/12/28 03:40:54;;;;;;;;;0.00;0.00;;;;;18.16;46.13;99102.75;5096456;27;51027;-51
2021/12/28 03:43:21;;;;;;;;;0.00;0.00;;;;;18.16;45.61;99097.28;5096503;27;51096;-47
2021/12/28 03:45:46;;;;;;;;;1.00;0.00;;;;;18.16;46.14;99102.75;5096518;27;51288;-50
2021/12/28 03:48:12;;;;;;;;;0.00;0.00;;;;;18.15;46.05;99107.41;5096849;27;51285;-48
2021/12/28 03:50:37;;;;;;;;;0.00;0.00;;;;;18.16;45.94;99103.59;5099788;27;51093;-50
2021/12/28 03:53:05;;;;;;;;;0.00;0.00;;;;;18.16;45.95;99102.75;5099886;27;51051;-51
2021/12/28 03:55:31;;;;;;;;;0.00;0.00;;;;;18.16;46.03;99114.56;5100323;27;50956;-50
2021/12/28 03:57:59;;;;;;;;;0.00;0.00;;;;;18.17;46.19;99112.66;5099626;27;51815;-47
2021/12/28 04:00:27;;;;;;;;;0.00;0.00;;;;;18.15;45.90;99107.41;5098640;27;51048;-50
2021/12/28 04:02:52;;;;;;;;;0.00;0.00;;;;;18.15;45.97;99110.16;5099846;27;51078;-52
2021/12/28 04:05:18;;;;;;;;;0.00;0.00;;;;;18.15;45.92;99114.81;5099798;27;51063;-47
2021/12/28 04:07:46;;;;;;;;;0.00;0.00;;;;;18.16;45.89;99114.56;5099758;27;51006;-52
2021/12/28 04:10:15;;;;;;;;;0.00;0.00;;;;;18.16;45.63;99122.78;5099452;27;51080;-48
2021/12/28 04:12:41;;;;;;;;;0.00;0.00;;;;;18.16;46.00;99120.03;5099760;27;51070;-48
2021/12/28 04:15:10;;;;;;;;;1.00;0.00;;;;;18.16;46.00;99119.22;5098407;27;51419;-53
2021/12/28 04:17:37;;;;;;;;;0.00;0.00;;;;;18.16;46.04;99119.22;5097324;27;51137;-53
2021/12/28 04:20:11;;;;;;;;;0.00;0.00;;;;;18.16;45.86;99119.22;5079075;28;51429;-50
2021/12/28 04:22:37;;;;;;;;;0.00;0.00;;;;;18.17;46.03;99120.88;5079042;27;51196;-52
2021/12/28 04:25:04;;;;;;;;;0.00;0.00;;;;;18.17;45.95;99118.13;5079081;27;50966;-49
2021/12/28 04:27:30;;;;;;;;;0.00;0.00;;;;;18.16;46.38;99116.47;5092751;27;51956;-52
2021/12/28 04:29:55;;;;;;;;;0.00;0.00;;;;;18.17;46.00;99140.88;5099295;27;51028;-52
2021/12/28 04:32:20;;;;;;;;;0.00;0.00;;;;;18.17;46.00;99140.88;5099476;27;51097;-51
2021/12/28 04:34:46;;;;;;;;;0.00;0.00;;;;;18.18;46.11;99141.72;5099407;27;51196;-48
2021/12/28 04:37:11;;;;;;;;;0.00;0.00;;;;;18.16;46.25;99135.66;5098840;27;51392;-48
2021/12/28 04:39:37;;;;;;;;;0.00;0.00;;;;;18.17;45.94;99140.06;5099361;27;50859;-51
2021/12/28 04:42:03;;;;;;;;;0.00;0.00;;;;;18.17;45.84;99135.41;5099412;27;51101;-49
2021/12/28 04:44:28;;;;;;;;;0.00;0.00;;;;;18.18;46.05;99155.41;5099357;27;51110;-51
2021/12/28 04:46:54;;;;;;;;;0.00;0.00;;;;;18.16;46.01;99147.44;5098799;27;51019;-49
2021/12/28 04:49:23;;;;;;;;;0.00;0.00;;;;;18.17;45.84;99143.63;5098888;27;51177;-49
2021/12/28 04:51:49;;;;;;;;;0.00;0.00;;;;;18.17;45.85;99132.66;5099152;27;51274;-51
2021/12/28 04:54:15;;;;;;;;;0.00;0.00;;;;;18.17;46.09;99135.41;5099240;27;51239;-50
2021/12/28 04:56:41;;;;;;;;;0.00;0.00;;;;;18.17;46.19;99140.06;5098704;27;51989;-52
2021/12/28 04:59:06;;;;;;;;;0.00;0.00;;;;;18.18;46.01;99141.72;5098707;27;51017;-51
2021/12/28 05:01:33;;;;;;;;;0.00;0.00;;;;;18.17;45.93;99146.38;5098293;27;50952;-51
2021/12/28 05:03:59;;;;;;;;;0.00;0.00;;;;;18.18;46.43;99138.97;5099135;27;51400;-52
2021/12/28 05:06:24;;;;;;;;;0.00;0.00;;;;;18.18;46.05;99152.66;5098399;27;52045;-52
2021/12/28 05:08:50;;;;;;;;;0.00;0.00;;;;;18.18;46.05;99163.63;5098842;27;51059;-52
2021/12/28 05:11:15;;;;;;;;;0.00;0.00;;;;;18.17;46.10;99157.31;5097638;27;51358;-52
2021/12/28 05:13:41;;;;;;;;;0.00;0.00;;;;;18.19;46.01;99165.28;5098846;27;50896;-50
2021/12/28 05:16:07;;;;;;;;;0.00;0.00;;;;;18.18;46.05;99158.16;5098594;27;52704;-53
2021/12/28 05:18:32;;;;;;;;;0.00;0.00;;;;;18.18;46.15;99171.84;5087925;27;51189;-48
2021/12/28 05:20:58;;;;;;;;;0.00;0.00;;;;;18.18;45.67;99182.81;5078410;28;51200;-53
2021/12/28 05:23:24;;;;;;;;;0.00;0.00;;;;;18.18;45.94;99186.38;5078352;27;51029;-50
2021/12/28 05:25:49;;;;;;;;;0.25;0.00;;;;;18.19;46.08;99200.91;5077924;27;52008;-50
2021/12/28 05:28:15;;;;;;;;;0.00;0.00;;;;;18.17;46.09;99192.94;5097014;27;51084;-48
2021/12/28 05:30:40;;;;;;;;;0.00;0.00;;;;;18.19;46.02;99195.44;5098466;27;51536;-49
2021/12/28 05:33:06;;;;;;;;;0.00;0.00;;;;;18.18;45.74;99202.84;5098575;27;51192;-47
2021/12/28 05:35:31;;;;;;;;;0.00;0.00;;;;;18.18;46.10;99200.09;5097918;27;51035;-50
2021/12/28 05:37:56;;;;;;;;;0.00;0.00;;;;;18.19;46.04;99209.16;5098115;27;51298;-49
2021/12/28 05:40:22;;;;;;;;;0.00;0.00;;;;;18.18;46.01;99213.78;5098591;27;51155;-49
2021/12/28 05:42:48;;;;;;;;;0.00;0.00;;;;;18.20;46.16;99207.22;5098497;27;51134;-49
2021/12/28 05:45:13;;;;;;;;;0.00;0.00;;;;;18.20;46.08;99207.22;5098112;27;50945;-53
2021/12/28 05:47:38;;;;;;;;;0.00;0.00;;;;;18.19;45.83;99209.16;5098128;27;51182;-51
2021/12/28 05:50:07;;;;;;;;;0.00;0.00;;;;;18.21;46.01;99214.38;5098111;27;51146;-51
2021/12/28 05:52:33;;;;;;;;;0.00;0.00;;;;;18.18;46.00;99216.53;5098492;27;51063;-52
2021/12/28 05:54:58;;;;;;;;;0.00;0.00;;;;;18.19;45.78;99220.09;5097912;27;52031;-48
2021/12/28 05:57:24;;;;;;;;;0.00;0.00;;;;;18.19;45.95;99236.56;5098155;27;50993;-48
2021/12/28 05:59:50;;;;;;;;;0.00;0.00;;;;;18.19;45.92;99211.88;5097802;27;51105;-50
2021/12/28 06:02:15;;;;;;;;;0.00;0.00;;;;;18.20;45.81;99229.16;5098068;27;51260;-49
2021/12/28 06:04:41;;;;;;;;;0.00;0.00;;;;;18.19;45.92;99231.06;5097812;27;51093;-50
2021/12/28 06:07:06;;;;;;;;;0.00;0.00;;;;;18.18;46.03;99234.88;5097598;27;51065;-46
2021/12/28 06:09:31;;;;;;;;;0.00;0.00;;;;;18.20;45.83;99245.59;5097871;27;51110;-48
2021/12/28 06:11:57;;;;;;;;;0.00;0.00;;;;;18.20;46.21;99240.94;5098002;27;50936;-50
2021/12/28 06:14:22;;;;;;;;;0.50;0.00;;;;;18.20;45.95;99245.59;5097411;27;50854;-51
2021/12/28 06:16:47;;;;;;;;;0.75;0.00;;;;;18.19;46.01;99258.47;5097670;27;51039;-50
2021/12/28 06:19:13;;;;;;;;;0.00;0.00;;;;;18.19;45.98;99258.47;5081878;27;51181;-48
2021/12/28 06:21:38;;;;;;;;;0.00;0.00;;;;;18.20;45.95;99253.81;5077222;27;51294;-50
2021/12/28 06:24:05;;;;;;;;;0.00;0.00;;;;;18.19;45.90;99261.22;5076724;27;52007;-50
2021/12/28 06:26:33;;;;;;;;;0.00;0.00;;;;;18.20;45.94;99273.84;5083149;27;50966;-50
2021/12/28 06:29:00;;;;;;;;;0.00;0.00;;;;;18.21;46.31;99270.03;5097496;27;51115;-49
2021/12/28 06:31:29;;;;;;;;;0.00;0.00;;;;;18.21;46.07;99272.75;5097922;27;50938;-51
2021/12/28 06:33:58;;;;;;;;;0.00;0.00;;;;;18.22;45.77;99281.81;5096957;27;52000;-50
2021/12/28 06:36:24;;;;;;;;;0.00;0.00;;;;;18.21;46.04;99286.47;5097312;27;51595;-55
2021/12/28 06:38:50;;;;;;;;;0.00;0.00;;;;;18.21;45.77;99297.44;5097607;27;51118;-48
2021/12/28 06:41:16;;;;;;;;;0.00;0.00;;;;;18.21;46.01;99307.56;5097480;27;50995;-49
2021/12/28 06:43:41;;;;;;;;;0.00;0.00;;;;;18.22;45.76;99320.19;5097189;27;51039;-53
2021/12/28 06:46:06;;;;;;;;;0.25;0.25;;;;;18.21;45.74;99319.34;5097209;27;50890;-52
2021/12/28 06:48:32;;;;;;;;;0.00;0.00;;;;;18.22;46.05;99321.00;5097018;27;50903;-49
2021/12/28 06:50:57;;;;;;;;;0.00;0.00;;;;;18.22;45.76;99321.00;5097089;27;51212;-52
2021/12/28 06:53:22;;;;;;;;;0.00;0.00;;;;;18.22;45.99;99337.47;5096968;27;51785;-52
2021/12/28 06:55:48;;;;;;;;;0.00;0.00;;;;;18.22;45.73;99334.72;5097083;27;51082;-50
2021/12/28 06:58:13;;;;;;;;;0.00;0.00;;;;;18.21;45.83;99334.97;5096575;27;51347;-48
2021/12/28 07:00:39;;;;;;;;;0.00;0.00;;;;;18.21;45.91;99327.56;5097069;27;51056;-50
2021/12/28 07:03:06;;;;;;;;;0.00;0.00;;;;;18.20;45.98;99314.13;5096632;27;51765;-51
2021/12/28 07:05:31;;;;;;;;;0.00;0.00;;;;;18.19;45.92;99316.03;5096298;27;50952;-51
2021/12/28 07:07:56;;;;;;;;;0.00;0.00;;;;;18.20;45.82;99325.09;5096712;27;51057;-50
2021/12/28 07:10:22;;;;;;;;;0.00;0.00;;;;;18.21;45.86;99326.75;5097022;27;51109;-51
2021/12/28 07:12:51;;;;;;;;;0.00;0.00;;;;;18.21;45.79;99341.28;5096630;27;51093;-51
2021/12/28 07:15:18;;;;;;;;;0.00;0.00;;;;;18.21;45.86;99330.31;5096187;27;51267;-50
2021/12/28 07:17:44;;;;;;;;;0.00;0.00;;;;;18.21;45.47;99330.31;5092003;27;51262;-51
2021/12/28 07:20:10;;;;;;;;;0.00;0.00;;;;;18.21;45.82;99335.81;5076149;27;51273;-52
2021/12/28 07:22:35;;;;;;;;;0.50;0.00;;;;;18.22;45.96;99322.94;5075277;27;52553;-50
2021/12/28 07:25:01;;;;;;;;;2.25;1.50;;;;;18.21;45.91;99341.28;5076170;27;50921;-48
2021/12/28 07:27:26;;;;;;;;;0.75;0.75;;;;;18.21;45.98;99344.03;5089689;27;51084;-50
2021/12/28 07:29:51;;;;;;;;;0.00;0.00;;;;;18.21;45.84;99351.41;5096613;27;51008;-48
2021/12/28 07:32:17;;;;;;;;;0.00;0.00;;;;;18.23;45.72;99352.00;5096460;27;51096;-50
2021/12/28 07:34:42;;;;;;;;;0.00;0.00;;;;;18.22;45.87;99353.06;5096193;27;51160;-49
2021/12/28 07:37:07;;;;;;;;;0.00;0.00;;;;;18.22;45.93;99353.06;5096175;27;50978;-51
2021/12/28 07:39:33;;;;;;;;;0.50;0.50;;;;;18.22;45.66;99353.06;5096352;27;50973;-51
2021/12/28 07:41:58;;;;;;;;;0.50;0.50;;;;;18.22;45.88;99366.78;5096059;27;52745;-50
2021/12/28 07:44:24;;;;;;;;;0.00;0.00;;;;;18.22;45.71;99362.13;5096554;27;51270;-50
2021/12/28 07:46:50;;;;;;;;;0.75;0.75;;;;;18.23;45.82;99373.91;5096061;27;51267;-52
2021/12/28 07:49:15;;;;;;;;;2.00;0.75;;;;;18.22;45.68;99381.31;5096296;27;50978;-50
2021/12/28 07:51:40;;;;;;;;;0.00;0.00;;;;;18.21;45.60;99379.66;5095779;27;51715;-53
2021/12/28 07:54:06;;;;;;;;;0.00;0.00;;;;;18.22;45.82;99394.19;5096321;27;50910;-53
2021/12/28 07:56:31;;;;;;;;;0.00;0.00;;;;;18.21;45.76;99396.09;5095958;27;51209;-52
2021/12/28 07:58:56;;;;;;;;;0.00;0.00;;;;;18.22;45.90;99400.50;5096356;27;50918;-52
2021/12/28 08:01:22;;;;;;;;;1.00;0.25;;;;;18.22;45.81;99411.47;5095932;27;51930;-53
2021/12/28 08:03:47;;;;;;;;;0.00;0.00;;;;;18.22;45.58;99396.94;5095704;27;51054;-53
2021/12/28 08:06:12;;;;;;;;;0.25;0.00;;;;;18.23;45.67;99409.56;5095888;27;51227;-51
2021/12/28 08:08:38;;;;;;;;;0.50;0.50;;;;;18.22;45.83;99411.47;5096223;27;51133;-52
2021/12/28 08:11:03;;;;;;;;;0.00;0.00;;;;;18.22;46.21;99414.22;5094286;27;51650;-51
2021/12/28 08:13:29;;;;;;;;;0.25;0.25;;;;;18.22;45.73;99416.94;5095629;27;50903;-53
2021/12/28 08:15:55;;;;;;;;;0.25;0.25;;;;;18.23;45.33;99412.28;5095528;27;51466;-51
2021/12/28 08:18:21;;;;;;;;;0.00;0.00;;;;;18.23;45.70;99417.78;5086909;27;52044;-53
2021/12/28 08:20:46;;;;;;;;;1.50;0.00;;;;;18.22;45.70;99425.16;5073047;28;51924;-51
2021/12/28 08:23:11;;;;;;;;;0.00;0.00;;;;;18.23;45.76;99437.78;5075131;27;51028;-52
2021/12/28 08:25:37;;;;;;;;;1.75;0.75;;;;;18.23;45.76;99442.44;5075337;27;51113;-52
2021/12/28 08:28:05;;;;;;;;;0.75;0.50;;;;;18.23;45.84;99445.19;5094041;27;51436;-48
2021/12/28 08:30:31;;;;;;;;;1.00;1.00;;;;;18.24;45.89;99449.63;5095184;27;51787;-50
2021/12/28 08:32:56;;;;;;;;;0.00;0.00;;;;;18.24;45.71;99452.38;5095350;27;50894;-51
2021/12/28 08:35:22;;;;;;;;;0.25;0.25;;;;;18.24;45.54;99452.38;5096590;27;51141;-49
2021/12/28 08:37:47;;;;;;;;;2.00;0.00;;;;;18.23;45.63;99462.47;5099308;27;50936;-51
2021/12/28 08:40:15;;;;;;;;;1.25;0.75;;;;;18.24;46.14;99472.38;5098847;27;51275;-53
2021/12/28 08:42:41;;;;;;;;;0.00;0.00;;;;;18.24;45.79;99480.59;5098922;27;51239;-51
2021/12/28 08:45:07;;;;;;;;;1.00;1.00;;;;;18.23;45.54;99489.88;5099113;27;50957;-48
2021/12/28 08:47:33;;;;;;;;;1.75;0.25;;;;;18.24;45.85;99486.09;5097725;27;51107;-50
2021/12/28 08:49:59;;;;;;;;;2.00;0.00;;;;;18.24;45.79;99486.09;5098307;27;52207;-52
2021/12/28 08:52:26;;;;;;;;;0.00;0.00;;;;;18.23;45.93;99484.41;5098861;27;51031;-52
2021/12/28 08:54:51;;;;;;;;;0.00;0.00;;;;;18.25;45.92;99484.19;5098735;27;51142;-51
2021/12/28 08:57:18;;;;;;;;;0.50;0.50;;;;;18.24;45.91;99485.25;5098630;27;50901;-51
2021/12/28 08:59:44;;;;;;;;;0.00;0.00;;;;;18.25;45.95;99475.97;5098402;27;51956;-53
2021/12/28 09:02:09;;;;;;;;;1.50;1.00;;;;;18.24;45.74;99479.78;5098326;27;50903;-52
2021/12/28 09:04:39;;;;;;;;;0.00;0.00;;;;;18.23;45.82;99487.13;5098626;27;51123;-52
2021/12/28 09:07:05;;;;;;;;;0.25;0.25;;;;;18.24;45.79;99468.81;5098432;27;51028;-51
2021/12/28 09:09:30;;;;;;;;;2.25;1.00;;;;;18.23;45.95;99484.41;5098425;27;51074;-51
2021/12/28 09:11:55;;;;;;;;;0.25;0.25;;;;;18.24;45.94;99482.50;5098418;27;51028;-51
2021/12/28 09:14:21;;;;;;;;;0.00;0.00;;;;;18.24;45.85;99494.31;5098329;27;51181;-52
2021/12/28 09:16:46;;;;;;;;;0.00;0.00;;;;;18.24;46.08;99485.25;5098338;27;51342;-50
2021/12/28 09:19:11;;;;;;;;;0.00;0.00;;;;;18.24;46.21;99494.31;5082085;27;51978;-50
2021/12/28 09:21:37;;;;;;;;;2.25;0.00;;;;;18.23;46.01;99492.63;5077713;27;50938;-50
2021/12/28 09:24:03;;;;;;;;;0.75;0.75;;;;;18.23;45.82;99476.16;5077745;28;50953;-48
2021/12/28 09:26:28;;;;;;;;;0.50;0.50;;;;;18.24;45.89;99486.09;5083357;27;51351;-48
2021/12/28 09:28:53;;;;;;;;;2.50;0.25;;;;;18.23;46.13;99492.63;5098041;27;52079;-50
2021/12/28 09:31:19;;;;;;;;;0.25;0.25;;;;;18.24;45.85;99483.34;5098229;27;51067;-47
2021/12/28 09:33:45;;;;;;;;;1.50;1.00;;;;;18.24;45.86;99502.53;5098057;27;51210;-50
2021/12/28 09:36:14;;;;;;;;;1.00;0.00;;;;;18.24;45.89;99493.47;5097589;27;51395;-51
2021/12/28 09:38:40;;;;;;;;;0.00;0.00;;;;;18.24;46.04;99488.81;5097756;27;52026;-51
2021/12/28 09:41:06;;;;;;;;;0.00;0.00;;;;;18.23;45.84;99480.81;5097929;27;51060;-50
2021/12/28 09:43:31;;;;;;;;;4.50;2.50;;;;;18.23;46.05;99492.63;5097931;27;51193;-51
2021/12/28 09:45:56;;;;;;;;;0.00;0.00;;;;;18.24;45.84;99509.94;5097709;27;50941;-53
2021/12/28 09:48:22;;;;;;;;;2.00;2.00;;;;;18.23;45.78;99509.06;5097044;27;51711;-51
2021/12/28 09:50:47;;;;;;;;;1.00;1.00;;;;;18.26;45.94;99510.50;5097375;27;51106;-51
2021/12/28 09:53:15;;;;;;;;;3.50;0.00;;;;;18.25;45.72;99506.94;5097845;27;50891;-52
2021/12/28 09:55:41;;;;;;;;;1.50;1.50;;;;;18.25;45.81;99512.41;5097733;27;51299;-51
2021/12/28 09:58:07;;;;;;;;;0.00;0.00;;;;;18.24;45.94;99510.75;5096977;27;51166;-51
2021/12/28 10:00:33;;;;;;;;;1.00;1.00;;;;;18.26;45.74;99526.97;5097104;27;50962;-51
2021/12/28 10:02:58;;;;;;;;;2.00;1.00;;;;;18.25;45.74;99520.66;5097739;27;50996;-48
2021/12/28 10:05:25;;;;;;;;;0.75;0.75;;;;;18.25;45.92;99530.78;5097608;27;50973;-50
2021/12/28 10:07:57;;;;;;;;;2.50;1.25;;;;;18.24;45.71;99518.97;5097318;27;51008;-50
2021/12/28 10:10:27;;;;;;;;;1.00;1.00;;;;;18.24;45.87;99532.69;5095613;27;50997;-50
2021/12/28 10:12:57;;;;;;;;;1.00;1.00;;;;;18.24;45.57;99527.22;5097575;27;51116;-50
2021/12/28 10:15:26;;;;;;;;;5.75;1.75;;;;;18.25;45.81;99522.56;5097333;27;51240;-50
2021/12/28 10:17:54;;;;;;;;;1.75;0.75;;;;;18.24;45.73;99532.69;5092473;27;51225;-52
2021/12/28 10:20:22;;;;;;;;;0.25;0.25;;;;;18.25;45.79;99530.78;5076732;27;51150;-52
2021/12/28 10:23:01;;;;;;;;;0.00;0.00;;;;;18.24;45.72;99540.91;5076392;27;51123;-51
2021/12/28 10:25:31;;;;;;;;;1.25;0.75;;;;;18.25;45.61;99556.28;5076943;27;51721;-52
2021/12/28 10:27:59;;;;;;;;;2.00;1.50;;;;;18.25;45.61;99550.81;5094330;27;51005;-49
2021/12/28 10:30:29;;;;;;;;;2.00;0.25;;;;;18.25;45.46;99548.06;5097018;27;51160;-49
2021/12/28 10:33:06;;;;;;;;;3.00;0.25;;;;;18.25;45.54;99553.53;5096765;27;51101;-52
2021/12/28 10:35:35;;;;;;;;;0.00;0.00;;;;;18.24;45.55;99560.09;5096439;27;51183;-48
2021/12/28 10:38:06;;;;;;;;;0.25;0.25;;;;;18.25;45.50;99549.97;5096651;27;51191;-52
2021/12/28 10:40:36;;;;;;;;;1.25;1.00;;;;;18.24;45.54;99557.34;5096657;27;51314;-52
2021/12/28 10:43:08;;;;;;;;;2.25;2.00;;;;;18.25;45.57;99566.41;5096697;27;51024;-50
2021/12/28 10:45:47;;;;;;;;;2.00;1.00;;;;;18.25;45.36;99558.19;5096384;27;50994;-51
2021/12/28 10:48:25;;;;;;;;;0.75;0.75;;;;;18.25;45.49;99571.91;5095858;27;51866;-51
2021/12/28 10:51:07;;;;;;;;;2.75;1.75;;;;;18.24;45.55;99573.81;5095978;27;51071;-51
2021/12/28 10:53:56;;;;;;;;;1.00;1.00;;;;;18.25;45.24;99566.41;5096138;27;51009;-49
2021/12/28 10:56:24;;;;;;;;;0.00;0.00;;;;;18.25;45.47;99564.50;5096379;27;51197;-50
2021/12/28 10:58:50;;;;;;;;;4.00;1.50;;;;;18.25;45.30;99563.66;5094996;27;51722;-50
2021/12/28 11:01:34;;;;;;;;;1.25;1.25;;;;;18.25;45.03;99591.91;5096840;27;51069;-53
2021/12/28 11:04:08;;;;;;;;;0.25;0.25;;;;;18.26;45.35;99579.03;5096226;27;51110;-51
2021/12/28 11:06:36;;;;;;;;;1.25;0.75;;;;;18.26;45.38;99588.09;5095774;27;51103;-52
2021/12/28 11:09:07;;;;;;;;;1.00;1.00;;;;;18.26;44.94;99557.13;5095239;27;51391;-51
2021/12/28 11:11:34;;;;;;;;;1.00;1.00;;;;;18.26;45.31;99576.31;5096390;27;51213;-51
2021/12/28 11:14:02;;;;;;;;;3.00;1.00;;;;;18.25;45.26;99577.38;5095719;27;51225;-48
2021/12/28 11:16:29;;;;;;;;;0.50;0.50;;;;;18.26;45.32;99590.84;5096305;27;50984;-51
2021/12/28 11:18:58;;;;;;;;;0.50;0.50;;;;;18.26;45.40;99601.81;5086093;27;53177;-51
2021/12/28 11:21:33;;;;;;;;;3.25;1.50;;;;;18.27;45.23;99588.94;5075272;27;51263;-48
2021/12/28 11:24:09;;;;;;;;;1.75;1.50;;;;;18.26;45.40;99601.81;5075545;28;51112;-49
2021/12/28 11:26:38;;;;;;;;;1.00;1.00;;;;;18.27;45.37;99610.88;5081973;27;51292;-50
2021/12/28 11:29:11;;;;;;;;;3.25;1.00;;;;;18.26;45.24;99607.28;5095205;27;51027;-52
2021/12/28 11:31:40;;;;;;;;;0.75;0.75;;;;;18.28;45.14;99626.25;5095855;27;51159;-50